This is the latest recevied weather packets stored in our database for station/object JA6XZK-13. If no packets are shown the sender has not sent any weather packets the latest 10 day(s).
| Time | Temp. | Humidity | Pressure | Rain* | Wind** | Luminosity | Snow |
|---|---|---|---|---|---|---|---|
| 1777680509 | 17.22° C | 56% | 1009.8 hPa | - | - | - | - |
| 1777678710 | 16.67° C | 59% | 1009.7 hPa | - | - | - | - |
| 1777676911 | 16.11° C | 63% | 1009.4 hPa | - | - | - | - |
| 1777675112 | 15.56° C | 66% | 1009.1 hPa | - | - | - | - |
| 1777673312 | 15° C | 70% | 1008.9 hPa | - | - | - | - |
| 1777671513 | 14.44° C | 70% | 1008.7 hPa | - | - | - | - |
| 1777669713 | 14.44° C | 71% | 1008.3 hPa | - | - | - | - |
| 1777667914 | 14.44° C | 69% | 1007.7 hPa | - | - | - | - |
| 1777666114 | 14.44° C | 68% | 1007.5 hPa | - | - | - | - |
| 1777664315 | 14.44° C | 69% | 1007.6 hPa | - | - | - | - |
| 1777662516 | 14.44° C | 71% | 1007.5 hPa | - | - | - | - |
| 1777660716 | 14.44° C | 71% | 1007.3 hPa | - | - | - | - |
| 1777658512 | 15° C | 69% | 1007.4 hPa | - | - | - | - |
| 1777656712 | 15° C | 69% | 1006.8 hPa | - | - | - | - |
| 1777654913 | 15° C | 68% | 1006.6 hPa | - | - | - | - |
| 1777653114 | 15.56° C | 67% | 1006.2 hPa | - | - | - | - |
| 1777651314 | 15° C | 67% | 1006 hPa | - | - | - | - |
| 1777649515 | 15.56° C | 66% | 1005.5 hPa | - | - | - | - |
| 1777647715 | 15.56° C | 66% | 1005.1 hPa | - | - | - | - |
| 1777645897 | 15.56° C | 66% | 1004.6 hPa | - | - | - | - |
| 1777644660 | 15° C | 65% | 1004.2 hPa | - | - | - | - |
| 1777642861 | 15° C | 63% | 1003.8 hPa | - | - | - | - |
| 1777641062 | 15° C | 62% | 1003.3 hPa | - | - | - | - |
| 1777640199 | 15° C | 62% | 1003.1 hPa | - | - | - | - |
| 1777638400 | 15° C | 61% | 1002.8 hPa | - | - | - | - |
* Rain since midnight (hover to see other rain measurements)
** Current wind speed in m/s (hover to see current wind gust speed)